Time;durP1;ratioP1;P1;durP2;ratioP2;P2;SDS_P1;SDS_P2;PMS_P1;PMS_P2;Temp;Humidity;BMP_temperature;BMP_pressure;BME280_temperature;BME280_humidity;BME280_pressure;Samples;Min_cycle;Max_cycle;Signal;HPM_P1;HPM_P2
2021/10/25 04:27:29;;;;;;;9.05;5.82;;;;;;;3.94;76.80;100453.13;1074491;54;20037;31
2021/10/25 04:28:38;;;;;;;10.02;5.80;;;;;;;3.92;76.77;100454.16;1088378;47;20110;-81
2021/10/25 04:29:41;;;;;;;9.82;6.05;;;;;;;3.88;77.00;100454.34;1088375;54;20038;-81
2021/10/25 04:31:07;;;;;;;15.43;7.13;;;;;;;3.79;77.13;100449.59;1088165;54;20090;-80
2021/10/25 04:32:09;;;;;;;8.77;6.20;;;;;;;3.75;77.44;100458.66;1088339;54;20102;-79
2021/10/25 04:33:34;;;;;;;10.85;6.57;;;;;;;3.77;77.59;100462.09;1088383;54;20058;-81
2021/10/25 04:34:36;;;;;;;11.27;6.35;;;;;;;3.82;77.05;100452.06;1088404;54;20015;-79
2021/10/25 04:35:44;;;;;;;12.52;6.72;;;;;;;3.81;77.47;100446.88;1088379;54;20019;-80
2021/10/25 04:37:01;;;;;;;12.35;7.28;;;;;;;3.82;77.19;100449.44;1088373;54;20041;-80
2021/10/25 04:38:06;;;;;;;10.30;6.32;;;;;;;3.84;77.07;100452.84;1088290;54;20666;-79
2021/10/25 04:39:33;;;;;;;9.13;6.20;;;;;;;3.83;77.00;100451.13;1088327;54;20057;-79
2021/10/25 04:40:35;;;;;;;10.68;6.50;;;;;;;3.81;77.29;100453.00;1088253;54;20736;-79
2021/10/25 04:41:41;;;;;;;9.45;6.28;;;;;;;3.87;76.84;100452.63;1091717;39;20590;-79
2021/10/25 04:42:43;;;;;;;9.00;6.00;;;;;;;3.91;76.78;100453.31;1088371;54;20045;-81
2021/10/25 04:44:05;;;;;;;8.52;4.90;;;;;;;3.95;76.43;100457.47;1088327;54;20047;-81
2021/10/25 04:45:08;;;;;;;12.05;8.07;;;;;;;3.98;76.46;100459.06;1088343;54;20031;-81
2021/10/25 04:46:14;;;;;;;10.05;6.70;;;;;;;4.00;76.43;100457.19;1088331;54;20042;-80
2021/10/25 04:47:16;;;;;;;13.93;7.45;;;;;;;4.05;76.26;100458.63;1088317;54;20045;-78
2021/10/25 04:48:50;;;;;;;9.52;6.13;;;;;;;4.03;76.22;100464.97;1088257;54;20019;-79
2021/10/25 04:49:52;;;;;;;8.95;5.70;;;;;;;4.06;75.90;100456.84;1088391;54;20886;-80
2021/10/25 04:51:24;;;;;;;11.23;6.18;;;;;;;4.08;75.84;100457.56;1088372;54;20037;-79
2021/10/25 04:52:29;;;;;;;9.27;5.85;;;;;;;4.16;75.94;100462.41;1088335;54;20035;-79
2021/10/25 04:53:31;;;;;;;9.20;5.25;;;;;;;4.18;75.77;100466.66;1092686;46;20034;-79
2021/10/25 04:54:35;;;;;;;11.32;5.47;;;;;;;4.21;75.69;100465.63;1088305;54;20038;-79
2021/10/25 04:55:48;;;;;;;10.18;6.82;;;;;;;4.22;75.71;100462.03;1088409;54;20109;-80
2021/10/25 04:56:52;;;;;;;12.02;7.00;;;;;;;4.22;75.42;100462.91;1088299;54;20038;-80
2021/10/25 04:57:55;;;;;;;12.27;7.05;;;;;;;4.25;75.57;100466.31;1088257;54;20023;-79
2021/10/25 04:59:00;;;;;;;9.35;6.30;;;;;;;4.26;75.53;100463.56;1088264;54;20040;-79
2021/10/25 05:00:08;;;;;;;9.50;5.55;;;;;;;4.27;75.50;100474.97;1088348;54;20030;-80
2021/10/25 05:01:13;;;;;;;10.82;6.68;;;;;;;4.27;75.46;100464.41;1094331;39;20677;-79
2021/10/25 05:02:30;;;;;;;10.45;6.10;;;;;;;4.23;75.35;100463.75;1088250;54;20019;-81
2021/10/25 05:03:36;;;;;;;8.95;5.60;;;;;;;4.26;75.22;100465.34;1088327;54;20034;-79
2021/10/25 05:04:38;;;;;;;9.20;5.20;;;;;;;4.24;75.41;100461.97;1088741;46;20050;-79
2021/10/25 05:05:45;;;;;;;8.07;5.18;;;;;;;4.22;75.39;100462.91;1088348;54;20761;-80
2021/10/25 05:06:48;;;;;;;11.90;7.03;;;;;;;4.20;75.43;100464.78;1088246;54;20026;-79
2021/10/25 05:08:06;;;;;;;9.45;6.10;;;;;;;4.18;75.34;100474.59;1088297;54;20034;-79
2021/10/25 05:09:08;;;;;;;9.55;6.57;;;;;;;4.18;75.42;100466.66;1088340;54;20018;-79
2021/10/25 05:10:29;;;;;;;9.63;6.28;;;;;;;4.18;75.42;100464.03;1088205;54;20036;-81
2021/10/25 05:11:31;;;;;;;10.43;5.80;;;;;;;4.17;75.31;100464.97;1088223;54;20043;-80
2021/10/25 05:13:01;;;;;;;12.57;5.90;;;;;;;4.15;75.53;100458.94;1088232;54;20014;-82
2021/10/25 05:14:03;;;;;;;10.25;6.00;;;;;;;4.16;75.55;100462.41;1088255;54;20039;-80
2021/10/25 05:15:19;;;;;;;9.93;5.45;;;;;;;4.17;75.58;100456.19;1088274;54;20026;-81
2021/10/25 05:16:21;;;;;;;8.85;5.65;;;;;;;4.20;75.44;100458.66;1088341;54;20046;-79
2021/10/25 05:17:27;;;;;;;11.55;5.90;;;;;;;4.17;75.63;100466.78;1088193;54;20768;-80
2021/10/25 05:18:29;;;;;;;9.98;4.93;;;;;;;4.16;75.34;100457.13;1088311;54;20116;-80
2021/10/25 05:19:46;;;;;;;9.38;5.55;;;;;;;4.15;75.65;100460.72;1088270;54;20018;-79
2021/10/25 05:20:51;;;;;;;8.82;4.85;;;;;;;4.14;75.56;100459.00;1088335;54;20030;-78
2021/10/25 05:21:55;;;;;;;8.68;5.13;;;;;;;4.17;75.56;100454.38;1095498;39;20780;-80
2021/10/25 05:23:00;;;;;;;8.77;4.70;;;;;;;4.17;75.17;100454.38;1088282;54;20018;-80
2021/10/25 05:24:02;;;;;;;10.20;5.13;;;;;;;4.15;75.68;100456.28;1088309;54;20019;-78
2021/10/25 05:25:07;;;;;;;12.85;6.55;;;;;;;4.10;75.61;100462.81;1113576;39;20724;-79
2021/10/25 05:26:10;;;;;;;12.40;6.53;;;;;;;4.06;75.81;100456.84;1088266;54;20034;-79
2021/10/25 05:27:24;;;;;;;12.27;5.95;;;;;;;4.04;75.66;100458.72;1088265;54;20848;-80
2021/10/25 05:28:26;;;;;;;9.20;5.30;;;;;;;4.05;75.84;100468.38;1088251;54;20017;-78
2021/10/25 05:29:40;;;;;;;10.13;6.60;;;;;;;3.99;75.74;100471.38;1088205;54;20025;-78
2021/10/25 05:30:45;;;;;;;13.60;6.30;;;;;;;3.98;75.91;100467.00;1088239;54;20057;-80
2021/10/25 05:31:56;;;;;;;14.85;7.63;;;;;;;3.96;76.10;100461.81;1088213;54;20026;-79
2021/10/25 05:32:58;;;;;;;13.07;6.97;;;;;;;3.97;75.90;100457.41;1093010;39;20535;-80
2021/10/25 05:34:16;;;;;;;9.85;6.30;;;;;;;3.98;75.79;100464.38;1088280;54;20022;-80
2021/10/25 05:35:20;;;;;;;12.57;7.20;;;;;;;3.99;75.55;100463.44;1088265;54;20030;-79
2021/10/25 05:36:23;;;;;;;13.52;8.07;;;;;;;3.90;75.92;100462.19;1088225;54;20022;-79
2021/10/25 05:37:28;;;;;;;13.75;7.50;;;;;;;3.90;75.80;100457.75;1088192;54;20035;-80
2021/10/25 05:38:39;;;;;;;13.18;7.78;;;;;;;3.92;75.96;100460.28;1088145;54;20018;-80
2021/10/25 05:39:50;;;;;;;11.13;6.65;;;;;;;3.94;75.93;100465.50;1088255;54;20018;-79
2021/10/25 05:40:52;;;;;;;10.55;6.80;;;;;;;3.97;75.81;100460.03;1089731;46;20038;-79
2021/10/25 05:42:04;;;;;;;14.02;6.95;;;;;;;4.00;75.81;100457.19;1088070;54;20022;-79
2021/10/25 05:43:07;;;;;;;15.80;6.80;;;;;;;4.01;75.83;100448.31;1088275;54;20042;-80
2021/10/25 05:44:21;;;;;;;16.23;7.82;;;;;;;4.01;75.47;100458.91;1088305;54;20042;-78
2021/10/25 05:45:23;;;;;;;18.25;7.57;;;;;;;4.00;75.55;100458.06;1088241;54;20019;-80
2021/10/25 05:46:30;;;;;;;15.18;7.57;;;;;;;4.00;75.47;100454.56;1088212;54;20018;-79
2021/10/25 05:47:34;;;;;;;14.45;8.13;;;;;;;4.00;75.85;100452.78;1088152;54;20015;-79
2021/10/25 05:48:39;;;;;;;15.63;8.10;;;;;;;3.99;75.83;100468.72;1088290;54;20030;-80
2021/10/25 05:49:43;;;;;;;21.67;8.13;;;;;;;4.01;75.89;100464.19;1088250;54;20034;-79
2021/10/25 05:50:48;;;;;;;15.55;8.40;;;;;;;4.04;75.83;100456.09;1088295;54;20035;-79
2021/10/25 05:51:53;;;;;;;18.08;9.95;;;;;;;4.03;75.74;100467.59;1088227;54;20019;-79
2021/10/25 05:53:00;;;;;;;19.15;10.73;;;;;;;3.99;75.98;100463.44;1088127;54;20098;-79
2021/10/25 05:54:04;;;;;;;26.17;13.75;;;;;;;3.92;76.07;100462.09;1088208;54;20022;-78
2021/10/25 05:55:11;;;;;;;26.00;13.63;;;;;;;3.90;76.20;100463.03;1088199;54;20718;-79
2021/10/25 05:56:14;;;;;;;23.02;12.50;;;;;;;3.92;76.22;100467.41;1098614;39;20712;-78
2021/10/25 05:57:23;;;;;;;21.23;13.02;;;;;;;3.84;76.46;100465.19;1088130;54;20690;-78
2021/10/25 05:58:25;;;;;;;25.98;13.30;;;;;;;3.85;76.45;100469.53;1088190;54;20784;-79
2021/10/25 05:59:36;;;;;;;21.42;12.85;;;;;;;3.83;76.58;100466.13;1088263;54;20019;-78
2021/10/25 06:00:41;;;;;;;22.00;13.02;;;;;;;3.78;76.66;100461.13;1094131;39;20619;-78
2021/10/25 06:01:56;;;;;;;20.95;12.30;;;;;;;3.79;76.87;100457.53;1088206;54;20031;-79
2021/10/25 06:03:01;;;;;;;20.40;11.15;;;;;;;3.80;76.81;100451.31;1098241;39;20175;-79
2021/10/25 06:04:17;;;;;;;20.60;11.45;;;;;;;3.76;77.23;100452.44;1088209;54;20015;-77
2021/10/25 06:05:22;;;;;;;19.30;10.75;;;;;;;3.74;76.85;100451.69;1088182;54;20026;-78
2021/10/25 06:06:32;;;;;;;21.08;11.82;;;;;;;3.72;77.22;100450.91;1088268;54;20019;-77
2021/10/25 06:07:39;;;;;;;17.85;10.20;;;;;;;3.68;77.26;100447.59;1088210;54;20049;-79
2021/10/25 06:08:41;;;;;;;26.35;11.07;;;;;;;3.70;77.19;100450.13;1088244;54;20730;-78
2021/10/25 06:09:48;;;;;;;18.10;11.02;;;;;;;3.75;77.49;100448.09;1094355;39;20677;-78
2021/10/25 06:10:59;;;;;;;18.17;11.35;;;;;;;3.69;77.86;100448.44;1088167;54;20026;-78
2021/10/25 06:12:08;;;;;;;17.83;9.73;;;;;;;3.69;77.68;100443.16;1088146;54;20038;-78
2021/10/25 06:13:19;;;;;;;13.57;9.23;;;;;;;3.71;77.58;100451.84;1088176;54;20075;-79
2021/10/25 06:14:32;;;;;;;15.57;8.98;;;;;;;3.72;77.67;100453.56;1088254;54;20022;-78
2021/10/25 06:15:40;;;;;;;19.17;9.85;;;;;;;3.73;77.50;100456.09;1088183;54;20019;-78
2021/10/25 06:16:47;;;;;;;15.93;9.23;;;;;;;3.73;77.80;100458.75;1088245;54;20090;-78
2021/10/25 06:17:53;;;;;;;15.48;9.52;;;;;;;3.74;77.62;100456.97;1094936;47;20039;-80
2021/10/25 06:18:57;;;;;;;18.83;8.68;;;;;;;3.78;77.86;100460.28;1088110;54;20059;-78
2021/10/25 06:20:11;;;;;;;13.82;7.80;;;;;;;3.80;77.86;100458.41;1093056;47;20054;-78
2021/10/25 06:21:15;;;;;;;15.23;8.73;;;;;;;3.80;77.57;100466.34;1088155;54;20761;-78
2021/10/25 06:22:19;;;;;;;16.17;8.40;;;;;;;3.79;77.82;100465.47;1088177;54;20031;-77
2021/10/25 06:23:24;;;;;;;14.18;7.75;;;;;;;3.83;77.70;100469.66;1089339;47;20030;-78
2021/10/25 06:24:25;;;;;;;19.60;9.63;;;;;;;3.80;77.68;100464.53;1088642;47;20042;-78
2021/10/25 06:25:29;;;;;;;17.73;10.57;;;;;;;3.73;78.11;100471.97;1088080;54;20345;-77
2021/10/25 06:26:42;;;;;;;17.35;10.30;;;;;;;3.74;78.15;100475.47;1088093;54;20019;-78
2021/10/25 06:27:47;;;;;;;17.38;9.88;;;;;;;3.72;78.09;100475.59;1094596;47;20907;-78
2021/10/25 06:28:52;;;;;;;19.08;9.93;;;;;;;3.74;78.09;100473.66;1088110;54;20037;-79
2021/10/25 06:29:55;;;;;;;17.85;9.40;;;;;;;3.74;78.23;100478.13;1090166;39;20666;-78
2021/10/25 06:31:03;;;;;;;18.08;9.80;;;;;;;3.77;78.03;100477.97;1088098;54;20058;-78
2021/10/25 06:32:05;;;;;;;14.68;8.45;;;;;;;3.82;78.01;100475.88;1088134;54;20022;-79
2021/10/25 06:33:17;;;;;;;14.77;7.82;;;;;;;3.83;78.15;100482.00;1088158;54;20018;-77
2021/10/25 06:34:26;;;;;;;16.58;8.85;;;;;;;3.85;78.10;100474.84;1088138;54;20034;-78
2021/10/25 06:35:29;;;;;;;16.08;9.30;;;;;;;3.85;78.01;100473.06;1088786;39;20292;-81
2021/10/25 06:36:53;;;;;;;15.35;9.10;;;;;;;3.87;78.04;100476.44;1088090;54;20885;-78
2021/10/25 06:37:58;;;;;;;15.30;8.00;;;;;;;3.90;77.97;100473.63;1088101;54;20022;-79
2021/10/25 06:39:12;;;;;;;16.13;9.00;;;;;;;3.90;77.87;100473.63;1088110;54;20753;-80
2021/10/25 06:40:14;;;;;;;15.90;7.93;;;;;;;3.90;77.94;100476.25;1088083;54;20087;-78
2021/10/25 06:41:19;;;;;;;17.00;8.98;;;;;;;3.89;77.72;100476.38;1088047;54;20019;-78
2021/10/25 06:42:29;;;;;;;15.68;9.15;;;;;;;3.89;77.99;100479.84;1096458;39;20680;-79
2021/10/25 06:43:31;;;;;;;13.77;7.00;;;;;;;3.85;78.00;100481.00;1088070;54;20423;-80
2021/10/25 06:44:40;;;;;;;27.77;11.90;;;;;;;3.73;78.39;100479.06;1097212;39;20540;-81
2021/10/25 06:45:42;;;;;;;19.23;9.90;;;;;;;3.73;78.37;100471.13;1088045;54;20037;-77
2021/10/25 06:46:47;;;;;;;17.95;9.85;;;;;;;3.74;78.22;100486.06;1088547;47;20023;-78
2021/10/25 06:47:53;;;;;;;19.45;9.60;;;;;;;3.76;78.28;100492.13;1088172;54;20825;-77
2021/10/25 06:48:57;;;;;;;17.15;9.48;;;;;;;3.76;78.37;100494.75;1088112;54;20818;-78
2021/10/25 06:50:02;;;;;;;19.55;9.73;;;;;;;3.81;78.51;100489.19;1088144;54;20031;-78
2021/10/25 06:51:04;;;;;;;19.50;9.68;;;;;;;3.81;78.37;100490.03;1088157;54;20042;-78
2021/10/25 06:52:13;;;;;;;17.65;9.52;;;;;;;3.85;78.37;100483.63;1088058;54;20026;-79
2021/10/25 06:53:16;;;;;;;16.85;8.70;;;;;;;3.86;78.12;100482.69;1087648;54;20034;-79
2021/10/25 06:54:24;;;;;;;16.40;9.30;;;;;;;3.86;78.48;100482.69;1087922;54;20026;-83
2021/10/25 06:55:33;;;;;;;18.20;10.18;;;;;;;3.86;78.59;100480.06;1088186;54;20034;-78
2021/10/25 06:56:38;;;;;;;18.35;9.45;;;;;;;3.89;78.23;100484.31;1088044;54;20130;-80
2021/10/25 06:57:42;;;;;;;16.08;8.43;;;;;;;3.93;78.22;100471.75;1088192;54;20030;-80
2021/10/25 06:58:49;;;;;;;16.52;8.20;;;;;;;3.98;78.34;100475.81;1088164;54;20042;-77
2021/10/25 06:59:54;;;;;;;15.77;8.15;;;;;;;4.05;78.15;100482.44;1088158;54;20038;-78
2021/10/25 07:01:01;;;;;;;14.80;8.20;;;;;;;4.06;78.03;100485.94;1088125;54;20895;-78
2021/10/25 07:02:04;;;;;;;17.77;8.23;;;;;;;4.08;77.90;100486.69;1093967;39;20753;-77
2021/10/25 07:03:11;;;;;;;15.65;9.25;;;;;;;4.06;77.81;100488.59;1088230;54;20034;-78
2021/10/25 07:04:27;;;;;;;14.02;8.15;;;;;;;4.07;77.98;100492.91;1088086;54;20773;-80
2021/10/25 07:05:31;;;;;;;15.40;8.13;;;;;;;4.13;77.96;100494.34;1088006;54;20041;-78
2021/10/25 07:06:37;;;;;;;18.73;9.50;;;;;;;4.13;78.00;100492.56;1087762;54;20070;-74
2021/10/25 07:07:42;;;;;;;15.07;9.45;;;;;;;4.14;77.71;100494.28;1087206;54;20854;-74
2021/10/25 07:08:48;;;;;;;16.65;9.75;;;;;;;4.15;77.75;100493.34;1087319;54;20042;-73
2021/10/25 07:09:51;;;;;;;15.65;9.43;;;;;;;4.17;77.76;100490.59;1087347;54;20027;-74
2021/10/25 07:10:57;;;;;;;17.30;8.63;;;;;;;4.20;77.67;100493.06;1087475;54;21044;-74
2021/10/25 07:11:59;;;;;;;17.88;9.02;;;;;;;4.22;77.65;100499.97;1087121;54;20035;-73
2021/10/25 07:13:04;;;;;;;17.02;8.88;;;;;;;4.24;77.62;100506.94;1087295;54;20057;-74
2021/10/25 07:14:07;;;;;;;15.48;8.70;;;;;;;4.24;77.37;100502.50;1088394;46;20055;-73
2021/10/25 07:15:12;;;;;;;14.48;9.35;;;;;;;4.24;77.58;100489.25;1087369;54;20037;-73
2021/10/25 07:16:21;;;;;;;15.82;9.38;;;;;;;4.26;77.49;100489.16;1087321;54;20061;-73
2021/10/25 07:17:29;;;;;;;22.17;9.15;;;;;;;4.27;77.52;100496.16;1087349;54;20058;-73
2021/10/25 07:18:38;;;;;;;16.25;9.52;;;;;;;4.29;77.23;100499.56;1087307;54;20059;-73
2021/10/25 07:20:05;;;;;;;19.02;10.73;;;;;;;4.28;77.31;100504.03;1087402;54;20034;-73
2021/10/25 07:22:50;;;;;;;21.92;9.32;;;;;;;4.28;77.53;100513.75;1086940;54;20066;-73
2021/10/25 07:26:57;;;;;;;16.58;9.43;;;;;;;4.31;77.49;100508.28;1087196;54;20054;-74
2021/10/25 08:00:42;;;;;;;26.35;13.35;;;;;;;4.34;77.26;100497.50;1087231;54;20030;-74
2021/10/25 08:06:04;;;;;;;30.10;13.40;;;;;;;4.18;77.76;100479.91;1086757;54;20030;-74
2021/10/25 08:07:16;;;;;;;20.25;13.23;;;;;;;4.16;77.92;100478.28;1087275;54;20117;-73
2021/10/25 08:08:32;;;;;;;22.80;13.02;;;;;;;4.16;78.13;100479.13;1087202;54;20042;-74
2021/10/25 08:09:54;;;;;;;20.83;12.00;;;;;;;4.18;78.14;100482.53;1087089;54;20042;-73
2021/10/25 08:11:02;;;;;;;14.35;10.05;;;;;;;4.28;78.01;100482.84;1088822;39;20597;-74
2021/10/25 08:12:09;;;;;;;17.27;10.15;;;;;;;4.37;77.70;100484.06;1087071;54;20042;-75
2021/10/25 08:13:15;;;;;;;16.13;9.90;;;;;;;4.48;77.75;100478.97;1087276;54;20030;-74
2021/10/25 08:14:21;;;;;;;18.40;9.88;;;;;;;4.59;77.42;100473.00;1087282;54;20059;-74
2021/10/25 08:15:25;;;;;;;15.23;9.00;;;;;;;4.69;77.16;100478.59;1088656;39;20668;-74
2021/10/25 08:16:42;;;;;;;20.88;9.55;;;;;;;4.86;76.69;100476.66;1087102;54;20994;-74
2021/10/25 08:17:49;;;;;;;12.68;8.68;;;;;;;4.92;76.54;100478.91;1087251;54;20114;-74
2021/10/25 08:19:22;;;;;;;14.18;9.15;;;;;;;4.96;76.37;100457.41;1087197;54;20041;-74
2021/10/25 08:20:27;;;;;;;14.98;8.32;;;;;;;5.06;76.34;100476.25;1087231;54;20031;-73
2021/10/25 08:21:28;;;;;;;14.02;7.93;;;;;;;5.14;76.08;100473.94;1087264;54;20034;-73
2021/10/25 08:22:37;;;;;;;14.32;8.27;;;;;;;5.22;75.74;100483.19;1088528;39;20751;-74
2021/10/25 08:23:39;;;;;;;12.68;8.20;;;;;;;5.26;75.81;100477.59;1087193;54;20027;-73
2021/10/25 08:24:49;;;;;;;14.52;9.32;;;;;;;5.30;76.01;100476.47;1087179;54;20970;-74
2021/10/25 08:25:51;;;;;;;20.23;10.18;;;;;;;5.33;75.82;100478.03;1086956;54;20057;-73
2021/10/25 08:26:55;;;;;;;20.25;9.70;;;;;;;5.40;75.83;100482.00;1087519;39;20723;-73
2021/10/25 08:28:00;;;;;;;19.25;10.18;;;;;;;5.51;75.77;100480.44;1087564;39;20712;-74
2021/10/25 08:29:03;;;;;;;16.30;9.85;;;;;;;5.52;75.65;100480.34;1087040;54;20042;-74
2021/10/25 08:30:11;;;;;;;22.80;10.27;;;;;;;5.69;75.36;100484.50;1087100;54;20706;-74
2021/10/25 08:31:13;;;;;;;22.23;10.88;;;;;;;5.70;75.27;100486.22;1087185;54;20027;-74
2021/10/25 08:32:29;;;;;;;24.75;11.88;;;;;;;5.80;74.80;100488.25;1087363;39;20664;-75
2021/10/25 08:33:47;;;;;;;20.08;11.98;;;;;;;5.83;74.68;100488.91;1090287;39;20630;-75
2021/10/25 08:35:00;;;;;;;23.85;12.07;;;;;;;5.94;74.51;100499.63;1087104;54;20030;-74
2021/10/25 08:36:11;;;;;;;22.20;11.07;;;;;;;6.05;74.23;100479.50;1089178;39;20722;-74
2021/10/25 08:39:52;;;;;;;18.85;10.35;;;;;;;6.30;73.67;100489.31;1089018;39;20614;-75
2021/10/25 08:40:57;;;;;;;17.65;9.77;;;;;;;6.45;73.31;100483.88;1087141;54;20034;-73
2021/10/25 08:42:00;;;;;;;18.10;9.63;;;;;;;6.52;72.96;100488.66;1087166;54;20026;-74
2021/10/25 08:43:05;;;;;;;17.15;9.75;;;;;;;6.51;72.82;100475.47;1087135;54;20034;-73
2021/10/25 08:44:09;;;;;;;18.23;10.23;;;;;;;6.48;72.99;100471.22;1087143;54;20031;-74
2021/10/25 08:45:15;;;;;;;19.05;10.00;;;;;;;6.51;73.02;100480.78;1087215;54;20034;-75
2021/10/25 08:46:20;;;;;;;15.85;9.30;;;;;;;6.62;72.77;100475.56;1087003;54;20026;-74
2021/10/25 08:47:25;;;;;;;22.20;11.25;;;;;;;6.62;72.34;100464.94;1087069;47;20037;-74
2021/10/25 08:48:27;;;;;;;22.23;10.57;;;;;;;6.53;72.19;100461.13;1087267;54;20090;-74
2021/10/25 08:49:32;;;;;;;27.27;10.85;;;;;;;6.58;72.29;100463.47;1087125;54;20035;-74
2021/10/25 08:50:37;;;;;;;22.48;11.05;;;;;;;6.59;72.32;100454.53;1086970;54;20034;-74
2021/10/25 08:51:39;;;;;;;17.50;10.68;;;;;;;6.64;72.08;100446.25;1087210;54;20038;-74
2021/10/25 08:52:44;;;;;;;17.58;9.75;;;;;;;6.72;71.95;100452.69;1088334;39;20583;-75
2021/10/25 08:53:48;;;;;;;18.98;9.95;;;;;;;6.75;72.10;100445.47;1087048;54;20057;-76
2021/10/25 08:54:54;;;;;;;13.13;8.20;;;;;;;6.84;71.94;100452.75;1087274;54;20058;-74
2021/10/25 08:55:55;;;;;;;13.65;8.60;;;;;;;6.89;71.77;100450.66;1087069;54;20037;-75
2021/10/25 08:57:01;;;;;;;15.00;8.95;;;;;;;6.90;71.32;100452.31;1087086;54;20053;-74
2021/10/25 08:58:03;;;;;;;17.58;9.25;;;;;;;6.94;71.21;100453.81;1087916;39;20737;-74
2021/10/25 08:59:07;;;;;;;24.55;12.32;;;;;;;6.78;71.10;100443.44;1088461;39;20854;-75
2021/10/25 09:00:11;;;;;;;16.33;9.90;;;;;;;6.71;71.12;100442.19;1087106;54;20698;-74
2021/10/25 09:01:26;;;;;;;17.73;10.65;;;;;;;6.70;71.37;100438.69;1087193;54;20099;-74
2021/10/25 09:02:31;;;;;;;15.45;9.95;;;;;;;6.85;71.13;100439.34;1087146;54;20039;-74
2021/10/25 09:03:34;;;;;;;16.15;9.45;;;;;;;6.93;71.14;100436.16;1087012;54;20026;-74
2021/10/25 09:04:38;;;;;;;14.07;8.52;;;;;;;7.05;70.92;100438.88;1087173;54;20058;-74
2021/10/25 09:05:54;;;;;;;20.50;9.90;;;;;;;7.08;70.43;100438.66;1087119;54;20038;-74
2021/10/25 09:06:57;;;;;;;19.80;9.43;;;;;;;7.13;70.87;100437.34;1087020;54;20033;-74
2021/10/25 09:08:04;;;;;;;15.48;8.95;;;;;;;7.26;70.53;100436.44;1087225;54;20037;-74
2021/10/25 09:09:09;;;;;;;13.90;8.45;;;;;;;7.36;70.08;100436.63;1087307;54;20045;-75
2021/10/25 09:10:14;;;;;;;13.60;8.45;;;;;;;7.43;69.81;100432.53;1087163;54;20752;-75
2021/10/25 09:11:17;;;;;;;15.10;8.55;;;;;;;7.49;69.53;100432.06;1087313;54;20035;-74
2021/10/25 09:12:22;;;;;;;13.90;7.68;;;;;;;7.58;69.55;100441.19;1087062;54;20030;-75
2021/10/25 09:13:27;;;;;;;12.40;7.60;;;;;;;7.61;69.39;100447.13;1087169;54;20030;-74
2021/10/25 09:14:30;;;;;;;16.02;8.38;;;;;;;7.71;68.75;100441.09;1087473;39;20787;-75
2021/10/25 09:15:37;;;;;;;14.32;8.63;;;;;;;7.77;68.71;100444.16;1087238;54;20042;-74
2021/10/25 09:16:43;;;;;;;15.50;9.18;;;;;;;7.85;68.45;100446.19;1086877;54;20035;-74
2021/10/25 09:17:47;;;;;;;14.55;8.38;;;;;;;7.88;68.20;100451.28;1087164;54;20094;-74
2021/10/25 09:18:49;;;;;;;16.83;9.57;;;;;;;7.92;67.87;100444.78;1087103;54;20031;-74
2021/10/25 09:19:53;;;;;;;13.68;9.35;;;;;;;7.92;67.98;100439.47;1086985;54;20034;-75
2021/10/25 09:20:59;;;;;;;15.70;8.95;;;;;;;8.00;67.68;100443.34;1087123;54;20034;-74
2021/10/25 09:22:09;;;;;;;11.43;8.20;;;;;;;8.11;67.51;100438.03;1087125;54;20796;-74
2021/10/25 09:23:15;;;;;;;12.45;7.88;;;;;;;8.23;67.40;100434.41;1086847;54;20045;-75
2021/10/25 09:24:24;;;;;;;12.07;7.50;;;;;;;8.31;67.16;100443.63;1087161;54;20034;-74
2021/10/25 09:25:33;;;;;;;16.80;8.95;;;;;;;8.14;66.54;100432.44;1087063;54;20065;-75
2021/10/25 09:26:38;;;;;;;18.10;8.73;;;;;;;8.15;67.35;100435.97;1087927;31;20871;-75
2021/10/25 09:27:45;;;;;;;14.00;8.55;;;;;;;8.40;67.03;100430.41;1088305;39;20173;-74
2021/10/25 09:28:51;;;;;;;17.15;9.35;;;;;;;8.30;66.86;100437.44;1086703;54;20030;-75
2021/10/25 09:29:59;;;;;;;16.40;8.30;;;;;;;8.49;66.69;100431.53;1087032;54;20086;-75
2021/10/25 09:31:09;;;;;;;11.25;7.35;;;;;;;8.76;66.52;100438.28;1087058;54;20054;-74
2021/10/25 09:32:13;;;;;;;12.95;7.97;;;;;;;8.91;65.93;100425.56;1087142;54;20698;-75
2021/10/25 09:33:22;;;;;;;12.93;7.45;;;;;;;8.94;65.47;100427.13;1086941;54;20034;-75
2021/10/25 09:34:34;;;;;;;12.32;7.00;;;;;;;9.07;64.96;100426.94;1087098;54;20037;-75
2021/10/25 09:35:41;;;;;;;13.57;8.73;;;;;;;8.93;65.24;100422.75;1087084;54;20030;-75
2021/10/25 09:36:45;;;;;;;11.18;7.70;;;;;;;9.21;65.02;100421.31;1086864;54;20110;-75
2021/10/25 09:37:56;;;;;;;14.77;8.05;;;;;;;9.29;64.77;100423.34;1087031;54;20793;-75
2021/10/25 09:39:06;;;;;;;17.73;7.30;;;;;;;9.43;64.45;100422.22;1087144;54;20034;-75
2021/10/25 09:40:20;;;;;;;15.90;8.60;;;;;;;9.39;63.21;100429.63;1087426;39;20803;-76
2021/10/25 09:45:45;;;;;;;11.10;7.40;;;;;;;10.25;62.39;100415.28;1087150;54;20064;-75
2021/10/25 09:49:28;;;;;;;14.68;7.50;;;;;;;10.56;61.92;100409.94;1087044;54;20030;-76
2021/10/25 09:50:46;;;;;;;16.25;8.65;;;;;;;10.45;61.82;100411.75;1086722;54;20031;-76
2021/10/25 09:51:52;;;;;;;15.82;7.97;;;;;;;10.56;61.27;100408.09;1087086;54;20045;-75
2021/10/25 09:52:57;;;;;;;12.82;7.68;;;;;;;10.82;61.46;100407.59;1089001;39;20725;-75
2021/10/25 09:53:59;;;;;;;12.15;6.35;;;;;;;11.13;60.77;100409.38;1086887;54;20034;-75
2021/10/25 09:55:07;;;;;;;10.02;6.63;;;;;;;11.33;60.04;100400.38;1087050;54;20765;-74
2021/10/25 09:56:13;;;;;;;12.75;7.38;;;;;;;11.13;60.19;100393.31;1086973;54;20030;-75
2021/10/25 09:57:23;;;;;;;12.40;6.97;;;;;;;11.43;59.83;100394.16;1087206;47;20050;-75
2021/10/25 09:58:27;;;;;;;13.40;6.75;;;;;;;11.65;59.44;100393.84;1087134;54;20034;-75
2021/10/25 09:59:37;;;;;;;12.40;7.63;;;;;;;11.90;58.92;100391.53;1087041;54;20035;-77
2021/10/25 10:00:39;;;;;;;14.95;7.13;;;;;;;11.85;58.56;100388.44;1086825;54;20362;-75
2021/10/25 10:01:44;;;;;;;13.90;7.38;;;;;;;11.93;58.80;100390.41;1087040;54;20030;-78
2021/10/25 10:02:50;;;;;;;9.77;6.82;;;;;;;11.99;58.25;100392.53;1087061;54;20037;-75
2021/10/25 10:03:55;;;;;;;13.75;6.35;;;;;;;11.88;58.60;100389.97;1086904;54;20030;-77
2021/10/25 10:04:59;;;;;;;10.18;6.63;;;;;;;11.89;58.63;100394.34;1087052;54;20034;-75
2021/10/25 10:06:00;;;;;;;8.95;6.05;;;;;;;11.82;58.58;100397.63;1087120;54;20760;-75
2021/10/25 10:07:05;;;;;;;9.98;6.13;;;;;;;11.80;58.58;100393.41;1086835;54;20037;-75
2021/10/25 10:08:11;;;;;;;12.32;6.63;;;;;;;11.73;58.77;100392.25;1087080;54;20030;-75
2021/10/25 10:09:16;;;;;;;10.50;6.70;;;;;;;11.71;58.91;100385.22;1087080;54;20041;-77
2021/10/25 10:10:20;;;;;;;11.75;6.45;;;;;;;11.64;58.65;100389.47;1086865;54;20030;-75
2021/10/25 10:11:28;;;;;;;9.75;6.45;;;;;;;11.59;58.72;100391.75;1086986;54;20650;-76
2021/10/25 10:12:30;;;;;;;14.73;7.18;;;;;;;11.57;58.63;100388.34;1087017;54;20030;-77
2021/10/25 10:13:35;;;;;;;14.88;7.35;;;;;;;11.49;58.74;100377.50;1088015;39;21099;-76
2021/10/25 10:14:40;;;;;;;13.90;7.00;;;;;;;11.44;59.13;100385.97;1086953;54;20053;-76
2021/10/25 10:15:43;;;;;;;12.98;7.05;;;;;;;11.45;59.05;100390.34;1087098;54;20026;-75
2021/10/25 10:16:50;;;;;;;11.10;6.65;;;;;;;11.49;58.76;100378.34;1086991;54;20030;-76
2021/10/25 10:17:59;;;;;;;9.27;6.05;;;;;;;11.54;58.79;100385.94;1086876;54;20031;-75
2021/10/25 10:19:09;;;;;;;8.32;5.65;;;;;;;11.54;58.70;100380.59;1087134;54;20058;-75
2021/10/25 10:20:14;;;;;;;11.82;6.63;;;;;;;11.53;58.55;100386.94;1086975;54;20049;-75
2021/10/25 10:21:19;;;;;;;9.27;6.68;;;;;;;11.51;58.82;100386.25;1086774;54;20837;-75
2021/10/25 10:22:22;;;;;;;11.68;6.60;;;;;;;11.49;58.93;100382.88;1087018;54;20046;-75
2021/10/25 10:23:26;;;;;;;12.88;6.57;;;;;;;11.47;58.80;100384.84;1086982;54;20034;-75
2021/10/25 10:24:31;;;;;;;11.82;7.15;;;;;;;11.43;58.94;100383.44;1087040;54;20049;-75
2021/10/25 10:25:37;;;;;;;11.85;6.25;;;;;;;11.46;58.80;100385.81;1087778;39;20701;-75
2021/10/25 10:26:55;;;;;;;10.23;6.68;;;;;;;11.47;58.48;100384.84;1086947;54;20030;-76
2021/10/25 10:28:01;;;;;;;11.63;6.85;;;;;;;11.46;58.58;100383.16;1086888;54;20099;-75
2021/10/25 10:30:18;;;;;;;10.23;6.85;;;;;;;11.48;58.84;100375.81;1092432;39;20712;-81
2021/10/25 10:31:26;;;;;;;12.70;6.85;;;;;;;11.59;58.70;100378.34;1087320;54;20783;-81